createdAt,value
2018-05-29T00:01:09.269Z,100232.45
2018-05-29T00:03:38.521Z,100236.23
2018-05-29T00:06:07.029Z,100239.30
2018-05-29T00:08:36.249Z,100236.59
2018-05-29T00:11:05.670Z,100231.80
2018-05-29T00:13:34.112Z,100232.63
2018-05-29T00:16:04.077Z,100234.70
2018-05-29T00:18:32.717Z,100226.37
2018-05-29T00:21:01.172Z,100233.33
2018-05-29T00:23:29.620Z,100229.77
2018-05-29T00:25:58.112Z,100222.53
2018-05-29T00:28:26.552Z,100230.76
2018-05-29T00:30:55.000Z,100232.05
2018-05-29T00:33:23.486Z,100237.72
2018-05-29T00:35:51.929Z,100232.72
2018-05-29T00:38:21.137Z,100229.06
2018-05-29T00:40:49.644Z,100232.12
2018-05-29T00:43:18.084Z,100231.55
2018-05-29T00:45:46.527Z,100234.19
2018-05-29T00:48:15.016Z,100233.76
2018-05-29T00:50:43.453Z,100231.89
2018-05-29T00:53:12.649Z,100227.59
2018-05-29T00:55:41.901Z,100225.83
2018-05-29T00:58:10.340Z,100225.62
2018-05-29T01:00:38.809Z,100212.05
2018-05-29T01:03:08.073Z,100223.64
2018-05-29T01:05:36.578Z,100215.62
2018-05-29T01:10:39.058Z,100214.55
2018-05-29T01:13:08.333Z,100210.14
2018-05-29T01:15:36.834Z,100210.14
2018-05-29T01:18:05.684Z,100206.30
2018-05-29T01:20:34.257Z,100199.82
2018-05-29T01:23:02.766Z,100203.70
2018-05-29T01:25:31.481Z,100205.19
2018-05-29T01:28:00.766Z,100203.91
2018-05-29T01:30:29.270Z,100204.20
2018-05-29T01:32:58.585Z,100191.62
2018-05-29T01:35:27.862Z,100195.79
2018-05-29T01:37:56.362Z,100189.95
2018-05-29T01:40:25.677Z,100199.20
2018-05-29T01:42:54.178Z,100199.70
2018-05-29T01:45:22.682Z,100200.80
2018-05-29T01:47:51.394Z,100193.86
2018-05-29T01:50:20.661Z,100200.14
2018-05-29T01:52:49.416Z,100196.63
2018-05-29T01:55:17.958Z,100193.37
2018-05-29T01:57:46.482Z,100196.87
2018-05-29T02:00:15.045Z,100194.27
2018-05-29T02:02:45.674Z,100197.81
2018-05-29T02:05:14.950Z,100187.33
2018-05-29T02:07:43.457Z,100188.47
2018-05-29T02:10:12.789Z,100198.09
2018-05-29T02:12:41.286Z,100192.20
2018-05-29T02:15:09.790Z,100189.96
2018-05-29T02:17:38.698Z,100191.28
2018-05-29T02:20:07.241Z,100193.89
2018-05-29T02:22:35.734Z,100198.09
2018-05-29T02:25:04.782Z,100192.29
2018-05-29T02:27:34.122Z,100191.84
2018-05-29T02:30:02.631Z,100190.84
2018-05-29T02:32:31.192Z,100193.91
2018-05-29T02:34:59.693Z,100194.19
2018-05-29T02:37:28.201Z,100192.50
2018-05-29T02:39:57.513Z,100200.81
2018-05-29T02:42:26.010Z,100195.47
2018-05-29T02:44:54.569Z,100210.41
2018-05-29T02:47:24.054Z,100209.52
2018-05-29T02:49:53.334Z,100218.26
2018-05-29T02:52:21.846Z,100212.63
2018-05-29T02:54:51.845Z,100211.58
2018-05-29T02:57:21.114Z,100217.48
2018-05-29T02:59:49.622Z,100212.79
2018-05-29T03:02:18.165Z,100211.30
2018-05-29T03:04:46.661Z,100213.03
2018-05-29T03:07:15.167Z,100213.08
2018-05-29T03:09:44.494Z,100222.21
2018-05-29T03:12:12.995Z,100224.79
2018-05-29T03:14:41.506Z,100223.55
2018-05-29T03:17:11.730Z,100226.38
2018-05-29T03:19:40.998Z,100221.25
2018-05-29T03:22:10.344Z,100223.66
2018-05-29T03:24:39.308Z,100230.92
2018-05-29T03:27:08.571Z,100231.20
2018-05-29T03:29:37.082Z,100234.75
2018-05-29T03:32:05.866Z,100236.88
2018-05-29T03:34:34.370Z,100237.16
2018-05-29T03:37:02.869Z,100234.22
2018-05-29T03:39:31.422Z,100236.23
2018-05-29T03:41:59.918Z,100241.38
2018-05-29T03:44:28.414Z,100244.13
2018-05-29T03:46:57.122Z,100237.05
2018-05-29T03:49:26.394Z,100240.59
2018-05-29T03:51:54.893Z,100241.16
2018-05-29T03:54:23.448Z,100237.83
2018-05-29T03:56:51.945Z,100233.69
2018-05-29T03:59:20.446Z,100242.80
2018-05-29T04:01:52.333Z,100253.59
2018-05-29T04:04:21.857Z,100251.60
2018-05-29T04:06:50.361Z,100248.99
2018-05-29T04:09:18.942Z,100243.19
2018-05-29T04:11:47.524Z,100242.83
2018-05-29T04:14:16.023Z,100241.73
2018-05-29T04:16:44.838Z,100250.72
2018-05-29T04:19:14.102Z,100251.72
2018-05-29T04:21:42.619Z,100249.84
2018-05-29T04:24:11.510Z,100253.31
2018-05-29T04:26:40.025Z,100256.30
2018-05-29T04:29:08.599Z,100258.16
2018-05-29T04:31:37.169Z,100252.09
2018-05-29T04:34:05.735Z,100257.36
2018-05-29T04:36:35.002Z,100261.30
2018-05-29T04:39:03.901Z,100257.62
2018-05-29T04:41:32.410Z,100254.53
2018-05-29T04:44:00.920Z,100255.64
2018-05-29T04:46:29.817Z,100256.00
2018-05-29T04:48:58.343Z,100255.16
2018-05-29T04:51:26.846Z,100250.56
2018-05-29T04:53:55.401Z,100251.49
2018-05-29T04:56:23.898Z,100254.55
2018-05-29T04:58:53.169Z,100260.55
2018-05-29T05:01:22.497Z,100248.82
2018-05-29T05:03:51.773Z,100251.06
2018-05-29T05:06:20.290Z,100254.48
2018-05-29T05:08:49.092Z,100250.73
2018-05-29T05:11:18.349Z,100251.59
2018-05-29T05:13:46.850Z,100245.77
2018-05-29T05:16:17.086Z,100243.59
2018-05-29T05:18:46.362Z,100240.19
2018-05-29T05:21:14.862Z,100241.34
2018-05-29T05:23:43.414Z,100237.05
2018-05-29T05:26:11.921Z,100239.73
2018-05-29T05:28:40.430Z,100250.52
2018-05-29T05:31:10.326Z,100248.77
2018-05-29T05:33:39.589Z,100258.16
2018-05-29T05:36:08.087Z,100252.98
2018-05-29T05:38:36.727Z,100247.67
2018-05-29T05:41:05.246Z,100250.73
2018-05-29T05:43:33.792Z,100260.82
2018-05-29T05:46:02.352Z,100259.59
2018-05-29T05:48:31.613Z,100258.73
2018-05-29T05:51:00.134Z,100254.37
2018-05-29T05:53:29.726Z,100258.55
2018-05-29T05:55:59.023Z,100256.88
2018-05-29T05:58:28.348Z,100257.14
2018-05-29T06:00:57.650Z,100259.78
2018-05-29T06:03:26.142Z,100259.75
2018-05-29T06:05:54.651Z,100249.31
2018-05-29T06:08:23.378Z,100248.81
2018-05-29T06:10:52.642Z,100246.53
2018-05-29T06:13:21.133Z,100241.45
2018-05-29T06:15:49.686Z,100246.66
2018-05-29T06:18:18.177Z,100244.91
2018-05-29T06:20:46.686Z,100242.16
2018-05-29T06:23:15.244Z,100237.95
2018-05-29T06:25:43.751Z,100235.02
2018-05-29T06:28:12.266Z,100229.65
2018-05-29T06:30:41.550Z,100228.16
2018-05-29T06:33:10.810Z,100232.45
2018-05-29T06:35:39.314Z,100228.10
2018-05-29T06:38:08.263Z,100224.39
2018-05-29T06:40:36.766Z,100227.84
2018-05-29T06:43:05.322Z,100218.92
2018-05-29T06:45:33.862Z,100219.57
2018-05-29T06:48:02.362Z,100216.08
2018-05-29T06:50:32.502Z,100209.25
2018-05-29T06:53:01.254Z,100213.13
2018-05-29T06:55:31.270Z,100213.50
2018-05-29T06:57:59.770Z,100216.00
2018-05-29T07:00:29.073Z,100215.12
2018-05-29T07:02:58.338Z,100213.75
2018-05-29T07:05:27.605Z,100211.59
2018-05-29T07:07:56.150Z,100209.62
2018-05-29T07:10:25.414Z,100207.14
2018-05-29T07:12:53.934Z,100202.01
2018-05-29T07:15:23.246Z,100203.17
2018-05-29T07:17:51.745Z,100201.05
2018-05-29T07:20:20.242Z,100197.79
2018-05-29T07:22:48.790Z,100205.38
2018-05-29T07:25:17.297Z,100202.29
2018-05-29T07:27:45.791Z,100207.06
2018-05-29T07:30:14.504Z,100196.03
2018-05-29T07:32:43.007Z,100200.16
2018-05-29T07:35:11.505Z,100192.70
2018-05-29T07:37:40.254Z,100187.64
2018-05-29T07:40:08.754Z,100178.44
2018-05-29T07:42:38.010Z,100178.00
2018-05-29T07:45:06.693Z,100174.84
2018-05-29T07:47:35.193Z,100172.66
2018-05-29T07:50:03.764Z,100172.56
2018-05-29T07:52:32.585Z,100171.05
2018-05-29T07:55:01.861Z,100165.73
2018-05-29T07:57:30.378Z,100164.43
2018-05-29T07:59:59.794Z,100162.16
2018-05-29T08:02:28.293Z,100152.47
2018-05-29T08:04:56.790Z,100149.85
2018-05-29T08:07:25.361Z,100150.91
2018-05-29T08:09:53.861Z,100151.84
2018-05-29T08:12:22.398Z,100153.84
2018-05-29T08:14:51.051Z,100151.91
2018-05-29T08:17:19.562Z,100153.00
2018-05-29T08:19:48.097Z,100153.39
2018-05-29T08:22:16.642Z,100149.70
2018-05-29T08:24:45.141Z,100150.84
2018-05-29T08:27:13.638Z,100155.13
2018-05-29T08:29:42.497Z,100156.91
2018-05-29T08:32:11.266Z,100154.30
2018-05-29T08:34:40.534Z,100150.41
2018-05-29T08:37:09.074Z,100152.20
2018-05-29T08:39:37.569Z,100147.23
2018-05-29T08:42:06.107Z,100144.56
2018-05-29T08:44:35.434Z,100147.77
2018-05-29T08:47:03.929Z,100143.14
2018-05-29T08:49:32.422Z,100136.19
2018-05-29T08:52:00.974Z,100134.92
2018-05-29T08:54:29.481Z,100136.09
2018-05-29T08:56:57.986Z,100124.51
2018-05-29T08:59:26.677Z,100116.64
2018-05-29T09:01:55.942Z,100116.03
2018-05-29T09:04:24.475Z,100115.94
2018-05-29T09:06:53.242Z,100113.88
2018-05-29T09:09:22.534Z,100106.72
2018-05-29T09:11:51.888Z,100101.97
2018-05-29T09:14:21.249Z,100103.17
2018-05-29T09:16:49.770Z,100107.92
2018-05-29T09:19:18.290Z,100105.53
2018-05-29T09:21:47.630Z,100109.39
2018-05-29T09:24:16.890Z,100112.16
2018-05-29T09:26:45.386Z,100112.55
2018-05-29T09:29:14.998Z,100111.25
2018-05-29T09:31:44.294Z,100105.80
2018-05-29T09:34:13.578Z,100103.36
2018-05-29T09:36:42.286Z,100101.36
2018-05-29T09:39:11.618Z,100101.01
2018-05-29T09:41:40.142Z,100096.48
2018-05-29T09:44:08.722Z,100096.20
2018-05-29T09:46:37.254Z,100089.70
2018-05-29T09:49:05.785Z,100083.64
2018-05-29T09:51:34.374Z,100083.66
2018-05-29T09:54:03.674Z,100072.33
2018-05-29T09:56:32.206Z,100072.02
2018-05-29T09:59:00.974Z,100068.58
2018-05-29T10:01:29.498Z,100069.14
2018-05-29T10:03:58.038Z,100073.98
2018-05-29T10:06:27.030Z,100064.36
2018-05-29T10:08:55.549Z,100057.25
2018-05-29T10:11:24.073Z,100057.11
2018-05-29T10:13:53.798Z,100051.91
2018-05-29T10:16:23.090Z,100051.94
2018-05-29T10:18:52.378Z,100049.41
2018-05-29T10:21:20.958Z,100045.36
2018-05-29T10:23:49.478Z,100044.60
2018-05-29T10:26:18.027Z,100043.27
2018-05-29T10:28:47.369Z,100041.59
2018-05-29T10:31:15.896Z,100043.08
2018-05-29T10:33:44.418Z,100041.45
2018-05-29T10:36:12.997Z,100031.09
2018-05-29T10:38:41.517Z,100035.73
2018-05-29T10:41:10.062Z,100034.03
2018-05-29T10:43:38.849Z,100033.78
2018-05-29T10:46:07.451Z,100022.24
2018-05-29T10:48:35.946Z,100030.41
2018-05-29T10:51:04.529Z,100029.14
2018-05-29T10:53:33.050Z,100023.31
2018-05-29T10:56:01.570Z,100015.75
2018-05-29T10:58:30.172Z,100024.77
2018-05-29T11:00:58.714Z,100014.77
2018-05-29T11:03:28.010Z,100011.82
2018-05-29T11:05:57.482Z,99997.02
2018-05-29T11:08:25.997Z,99992.97
2018-05-29T11:10:55.335Z,99992.19
2018-05-29T11:13:23.918Z,100002.61
2018-05-29T11:15:52.442Z,99999.05
2018-05-29T11:18:20.977Z,100002.10
2018-05-29T11:20:49.554Z,100003.02
2018-05-29T11:23:18.086Z,99999.17
2018-05-29T11:25:47.366Z,99994.96
2018-05-29T11:28:17.170Z,99984.52
2018-05-29T11:30:45.697Z,99993.19
2018-05-29T11:33:15.046Z,99989.98
2018-05-29T11:35:43.629Z,99974.48
2018-05-29T11:38:12.142Z,99978.58
2018-05-29T11:40:40.685Z,99980.38
2018-05-29T11:43:09.456Z,99975.61
2018-05-29T11:45:38.102Z,99975.43
2018-05-29T11:48:06.691Z,99974.03
2018-05-29T11:50:36.397Z,99976.14
2018-05-29T11:53:06.003Z,99972.50
2018-05-29T11:55:34.676Z,99975.41
2018-05-29T11:58:04.534Z,99966.86
2018-05-29T12:00:33.145Z,99957.14
2018-05-29T12:03:01.670Z,99965.13
2018-05-29T12:05:30.494Z,99957.47
2018-05-29T12:07:59.777Z,99966.65
2018-05-29T12:10:29.073Z,99973.57
2018-05-29T12:12:57.713Z,99968.84
2018-05-29T12:15:26.230Z,99971.45
2018-05-29T12:17:55.527Z,99969.02
2018-05-29T12:20:24.294Z,99970.73
2018-05-29T12:22:52.815Z,99961.73
2018-05-29T12:25:22.106Z,99961.59
2018-05-29T12:27:50.910Z,99961.28
2018-05-29T12:30:20.198Z,99949.09
2018-05-29T12:32:49.747Z,99959.30
2018-05-29T12:35:18.373Z,99966.34
2018-05-29T12:37:46.899Z,99961.27
2018-05-29T12:40:15.426Z,99960.55
2018-05-29T12:42:44.090Z,99951.88
2018-05-29T12:45:12.611Z,99952.65
2018-05-29T12:47:41.939Z,99954.47
2018-05-29T12:50:10.711Z,99950.33
2018-05-29T12:52:40.084Z,99954.39
2018-05-29T12:55:08.742Z,99945.91
2018-05-29T12:57:37.443Z,99947.13
2018-05-29T13:00:06.061Z,99941.27
2018-05-29T13:02:35.395Z,99945.40
2018-05-29T13:05:04.148Z,99935.98
2018-05-29T13:07:32.721Z,99933.45
2018-05-29T13:10:01.299Z,99925.40
2018-05-29T13:12:29.983Z,99929.11
2018-05-29T13:14:58.551Z,99924.18
2018-05-29T13:17:27.285Z,99928.09
2018-05-29T13:19:55.932Z,99923.48
2018-05-29T13:22:24.466Z,99935.20
2018-05-29T13:24:52.994Z,99923.83
2018-05-29T13:27:22.033Z,99928.33
2018-05-29T13:29:50.561Z,99925.67
2018-05-29T13:32:19.094Z,99924.14
2018-05-29T13:34:47.781Z,99923.26
2018-05-29T13:37:16.330Z,99918.79
2018-05-29T13:39:44.845Z,99918.75
2018-05-29T13:42:14.350Z,99925.94
2018-05-29T13:44:42.979Z,99921.93
2018-05-29T13:47:11.510Z,99913.27
2018-05-29T13:49:42.517Z,99918.17
2018-05-29T13:52:11.046Z,99916.13
2018-05-29T13:54:39.679Z,99916.23
2018-05-29T13:57:08.378Z,99910.84
2018-05-29T13:59:36.937Z,99912.36
2018-05-29T14:02:05.489Z,99916.19
2018-05-29T14:04:34.054Z,99913.14
2018-05-29T14:07:02.585Z,99919.41
2018-05-29T14:09:31.102Z,99909.73
2018-05-29T14:12:00.435Z,99912.58
2018-05-29T14:14:29.109Z,99911.72
2018-05-29T14:16:57.654Z,99912.63
2018-05-29T14:19:26.227Z,99913.34
2018-05-29T14:21:55.023Z,99919.92
2018-05-29T14:24:24.310Z,99912.19
2018-05-29T14:26:52.879Z,99915.92
2018-05-29T14:29:21.479Z,99903.57
2018-05-29T14:31:50.073Z,99907.86
2018-05-29T14:34:19.335Z,99906.96
2018-05-29T14:36:48.065Z,99904.45
2018-05-29T14:39:17.366Z,99901.95
2018-05-29T14:41:46.241Z,99907.39
2018-05-29T14:44:14.799Z,99899.95
2018-05-29T14:46:43.317Z,99900.67
2018-05-29T14:49:12.131Z,99899.34
2018-05-29T14:51:41.417Z,99892.81
2018-05-29T14:54:10.700Z,99892.52
2018-05-29T14:56:40.306Z,99893.05
2018-05-29T14:59:09.617Z,99890.09
2018-05-29T15:01:38.392Z,99891.55
2018-05-29T15:04:06.958Z,99885.05
2018-05-29T15:06:35.486Z,99889.47
2018-05-29T15:09:04.176Z,99890.32
2018-05-29T15:11:33.062Z,99892.94
2018-05-29T15:14:02.354Z,99889.70
2018-05-29T15:16:31.650Z,99887.97
2018-05-29T15:19:01.383Z,99887.87
2018-05-29T15:21:31.549Z,99886.56
2018-05-29T15:24:00.248Z,99886.02
2018-05-29T15:26:28.837Z,99883.75
2018-05-29T15:28:57.365Z,99881.73
2018-05-29T15:31:26.711Z,99882.70
2018-05-29T15:33:55.393Z,99886.13
2018-05-29T15:36:24.039Z,99876.69
2018-05-29T15:38:52.668Z,99877.83
2018-05-29T15:41:21.535Z,99874.66
2018-05-29T15:43:50.141Z,99875.02
2018-05-29T15:46:18.658Z,99869.19
2018-05-29T15:48:47.806Z,99867.55
2018-05-29T15:51:16.402Z,99868.73
2018-05-29T15:53:45.186Z,99872.20
2018-05-29T15:56:13.933Z,99872.41
2018-05-29T15:58:42.461Z,99871.80
2018-05-29T16:01:11.045Z,99876.52
2018-05-29T16:03:40.238Z,99879.51
2018-05-29T16:06:08.922Z,99880.05
2018-05-29T16:08:37.435Z,99884.31
2018-05-29T16:11:06.286Z,99884.36
2018-05-29T16:13:34.786Z,99887.32
2018-05-29T16:16:03.379Z,99882.43
2018-05-29T16:18:32.190Z,99890.84
2018-05-29T16:21:01.466Z,99885.22
2018-05-29T16:23:29.970Z,99887.75
2018-05-29T16:25:59.382Z,99889.44
2018-05-29T16:28:28.798Z,99889.58
2018-05-29T16:30:57.424Z,99887.68
2018-05-29T16:33:26.141Z,99885.52
2018-05-29T16:35:54.642Z,99883.47
2018-05-29T16:38:23.142Z,99884.70
2018-05-29T16:40:51.693Z,99889.30
2018-05-29T16:43:20.961Z,99886.39
2018-05-29T16:45:49.486Z,99885.02
2018-05-29T16:48:18.975Z,99886.02
2018-05-29T16:50:48.247Z,99881.02
2018-05-29T16:53:16.820Z,99879.88
2018-05-29T16:55:45.470Z,99883.00
2018-05-29T16:58:14.577Z,99879.97
2018-05-29T17:00:43.145Z,99875.98
2018-05-29T17:03:11.682Z,99878.62
2018-05-29T17:05:40.186Z,99875.38
2018-05-29T17:08:08.934Z,99874.19
2018-05-29T17:10:37.621Z,99876.06
2018-05-29T17:13:06.300Z,99882.59
2018-05-29T17:15:35.188Z,99883.66
2018-05-29T17:18:04.796Z,99883.52
2018-05-29T17:20:33.590Z,99889.28
2018-05-29T17:23:03.811Z,99887.33
2018-05-29T17:25:34.034Z,99885.33
2018-05-29T17:28:03.740Z,99891.02
2018-05-29T17:30:32.524Z,99894.13
2018-05-29T17:33:01.283Z,99895.23
2018-05-29T17:35:29.924Z,99888.78
2018-05-29T17:37:58.483Z,99891.59
2018-05-29T17:40:27.069Z,99888.42
2018-05-29T17:42:55.822Z,99892.69
2018-05-29T17:45:24.637Z,99891.16
2018-05-29T17:47:53.432Z,99894.44
2018-05-29T17:50:22.052Z,99898.05
2018-05-29T17:52:51.417Z,99897.48
2018-05-29T17:55:20.643Z,99900.77
2018-05-29T17:57:49.328Z,99894.71
2018-05-29T18:00:17.966Z,99892.57
2018-05-29T18:02:46.677Z,99891.09
2018-05-29T18:05:15.251Z,99894.81
2018-05-29T18:07:43.820Z,99902.51
2018-05-29T18:10:12.831Z,99901.99
2018-05-29T18:12:42.861Z,99899.80
2018-05-29T18:15:11.585Z,99906.80
2018-05-29T18:17:40.218Z,99907.94
2018-05-29T18:20:08.773Z,99914.92
2018-05-29T18:22:37.487Z,99917.44
2018-05-29T18:25:06.085Z,99916.27
2018-05-29T18:27:34.605Z,99916.45
2018-05-29T18:30:03.982Z,99921.60
2018-05-29T18:32:33.482Z,99926.92
2018-05-29T18:35:02.145Z,99932.36
2018-05-29T18:37:30.794Z,99937.36
2018-05-29T18:39:59.668Z,99944.57
2018-05-29T18:42:29.321Z,99949.42
2018-05-29T18:44:57.842Z,99954.13
2018-05-29T18:47:26.946Z,99958.80
2018-05-29T18:49:56.341Z,99965.45
2018-05-29T18:52:25.630Z,99965.36
2018-05-29T18:54:54.235Z,99967.09
2018-05-29T18:57:23.718Z,99971.33
2018-05-29T18:59:53.519Z,99972.78
2018-05-29T19:02:23.406Z,99981.75
2018-05-29T19:04:52.183Z,99982.42
2018-05-29T19:07:20.992Z,99983.32
2018-05-29T19:09:49.992Z,99994.03
2018-05-29T19:12:19.629Z,99997.45
2018-05-29T19:14:49.199Z,99995.35
2018-05-29T19:17:18.905Z,100004.59
2018-05-29T19:19:48.314Z,100001.93
2018-05-29T19:22:17.100Z,100005.35
2018-05-29T19:24:45.845Z,100004.14
2018-05-29T19:27:14.678Z,100009.34
2018-05-29T19:29:43.363Z,100009.98
2018-05-29T19:32:12.555Z,100015.57
2018-05-29T19:34:41.339Z,100020.63
2018-05-29T19:37:10.061Z,100028.53
2018-05-29T19:39:39.580Z,100028.33
2018-05-29T19:42:09.068Z,100035.53
2018-05-29T19:44:39.716Z,100042.46
2018-05-29T19:47:08.487Z,100047.05
2018-05-29T19:49:37.127Z,100050.11
2018-05-29T19:52:05.933Z,100058.17
2018-05-29T19:54:34.451Z,100059.13
2018-05-29T19:57:03.205Z,100060.01
2018-05-29T19:59:31.923Z,100061.14
2018-05-29T20:02:00.576Z,100062.86
2018-05-29T20:04:29.246Z,100062.52
2018-05-29T20:06:58.226Z,100058.11
2018-05-29T20:09:26.941Z,100060.98
2018-05-29T20:11:55.502Z,100057.97
2018-05-29T20:14:24.387Z,100060.22
2018-05-29T20:16:52.898Z,100058.05
2018-05-29T20:19:21.405Z,100057.23
2018-05-29T20:21:49.983Z,100058.38
2018-05-29T20:24:18.493Z,100059.17
2018-05-29T20:26:47.766Z,100055.33
2018-05-29T20:29:16.595Z,100050.80
2018-05-29T20:31:45.093Z,100058.33
2018-05-29T20:34:13.614Z,100056.71
2018-05-29T20:36:42.384Z,100047.80
2018-05-29T20:39:10.866Z,100053.25
2018-05-29T20:41:39.397Z,100057.71
2018-05-29T20:44:07.961Z,100061.16
2018-05-29T20:46:37.273Z,100057.25
2018-05-29T20:49:06.586Z,100057.91
2018-05-29T20:51:35.451Z,100065.59
2018-05-29T20:54:04.050Z,100061.19
2018-05-29T20:56:33.314Z,100064.91
2018-05-29T20:59:02.018Z,100071.72
2018-05-29T21:01:30.599Z,100070.61
2018-05-29T21:03:59.098Z,100070.48
2018-05-29T21:06:28.559Z,100073.80
2018-05-29T21:08:57.085Z,100072.90
2018-05-29T21:11:26.354Z,100076.94
2018-05-29T21:13:54.919Z,100078.23
2018-05-29T21:16:23.422Z,100076.14
2018-05-29T21:18:51.930Z,100079.17
2018-05-29T21:21:21.517Z,100074.84
2018-05-29T21:23:50.014Z,100072.72
2018-05-29T21:26:19.282Z,100081.44
2018-05-29T21:28:48.598Z,100081.11
2018-05-29T21:31:17.090Z,100072.23
2018-05-29T21:33:46.350Z,100078.49
2018-05-29T21:36:15.065Z,100083.65
2018-05-29T21:38:43.572Z,100078.91
2018-05-29T21:41:12.858Z,100078.81
2018-05-29T21:43:42.181Z,100071.92
2018-05-29T21:46:10.714Z,100073.27
2018-05-29T21:48:39.234Z,100071.03
2018-05-29T21:51:08.921Z,100071.66
2018-05-29T21:53:37.466Z,100072.05
2018-05-29T21:56:05.981Z,100066.90
2018-05-29T21:58:34.529Z,100069.88
2018-05-29T22:01:03.661Z,100070.17
2018-05-29T22:03:32.170Z,100064.37
2018-05-29T22:06:00.725Z,100064.99
2018-05-29T22:08:29.230Z,100065.11
2018-05-29T22:10:57.725Z,100054.86
2018-05-29T22:13:26.582Z,100055.78
2018-05-29T22:15:55.845Z,100051.80
2018-05-29T22:18:24.373Z,100057.34
2018-05-29T22:20:54.067Z,100055.95
2018-05-29T22:23:22.602Z,100050.75
2018-05-29T22:25:51.097Z,100052.70
2018-05-29T22:28:19.926Z,100048.19
2018-05-29T22:30:49.185Z,100048.98
2018-05-29T22:33:17.690Z,100046.89
2018-05-29T22:35:46.494Z,100044.34
2018-05-29T22:38:15.876Z,100041.81
2018-05-29T22:40:44.374Z,100031.85
2018-05-29T22:43:13.058Z,100035.48
2018-05-29T22:45:42.194Z,100031.58
2018-05-29T22:48:10.691Z,100031.13
2018-05-29T22:50:39.249Z,100032.33
2018-05-29T22:53:07.753Z,100029.89
2018-05-29T22:55:36.256Z,100031.91
2018-05-29T22:58:04.806Z,100027.17
2018-05-29T23:00:33.345Z,100024.80
2018-05-29T23:03:01.850Z,100022.04
2018-05-29T23:05:31.330Z,100018.12
2018-05-29T23:07:59.838Z,100011.80
2018-05-29T23:10:28.345Z,100008.11
2018-05-29T23:12:56.897Z,100010.03
2018-05-29T23:15:26.158Z,100008.70
2018-05-29T23:17:54.662Z,100007.78
2018-05-29T23:20:23.441Z,100007.63
2018-05-29T23:22:51.946Z,100008.87
2018-05-29T23:25:21.211Z,100009.21
2018-05-29T23:27:49.763Z,100007.28
2018-05-29T23:30:18.257Z,100012.47
2018-05-29T23:32:46.761Z,100015.91
2018-05-29T23:35:15.454Z,100017.33
2018-05-29T23:37:43.950Z,100017.32
2018-05-29T23:40:13.218Z,100017.66
2018-05-29T23:42:41.761Z,100016.65
2018-05-29T23:45:10.263Z,100019.81
2018-05-29T23:47:38.762Z,100026.19
2018-05-29T23:50:07.745Z,100022.29
2018-05-29T23:52:36.250Z,100026.63
2018-05-29T23:55:04.810Z,100018.58
2018-05-29T23:57:33.838Z,100016.86
